Time;durP1;ratioP1;P1;durP2;ratioP2;P2;SDS_P1;SDS_P2;PMS_P1;PMS_P2;Temp;Humidity;BMP_temperature;BMP_pressure;BME280_temperature;BME280_humidity;BME280_pressure;Samples;Min_cycle;Max_cycle;Signal;HPM_P1;HPM_P2
2022/05/22 00:01:07;;;;;;;1.50;1.00;;;14.80;98.20;;;;;;5024289;28;20951;-76
2022/05/22 00:03:35;;;;;;;1.47;1.00;;;14.90;98.20;;;;;;5030247;28;20463;-75
2022/05/22 00:06:02;;;;;;;1.50;1.00;;;14.90;98.20;;;;;;5008965;28;20998;-76
2022/05/22 00:08:30;;;;;;;1.50;1.00;;;14.90;98.20;;;;;;5028951;28;20469;-76
2022/05/22 00:10:57;;;;;;;1.50;1.00;;;14.90;98.20;;;;;;5022673;28;20470;-76
2022/05/22 00:13:25;;;;;;;1.50;1.00;;;14.90;98.20;;;;;;5030878;28;20562;-75
2022/05/22 00:18:37;;;;;;;1.50;1.00;;;14.90;98.20;;;;;;5010308;28;20495;-76
2022/05/22 00:21:05;;;;;;;1.50;1.00;;;15.00;98.20;;;;;;5025082;28;20537;-75
2022/05/22 00:23:33;;;;;;;1.50;1.00;;;15.00;98.20;;;;;;5030264;28;20482;-75
2022/05/22 00:26:01;;;;;;;1.47;1.00;;;15.00;98.20;;;;;;5028179;28;20537;-75
2022/05/22 00:28:29;;;;;;;1.50;1.00;;;15.00;98.20;;;;;;5030705;28;20475;-75
2022/05/22 00:30:58;;;;;;;1.43;1.00;;;15.00;98.20;;;;;;5028542;28;20467;-75
2022/05/22 00:33:27;;;;;;;1.50;1.00;;;15.00;98.20;;;;;;5029966;28;20555;-75
2022/05/22 00:35:55;;;;;;;1.50;1.00;;;15.00;98.20;;;;;;5015781;28;20479;-75
2022/05/22 00:38:23;;;;;;;1.50;1.00;;;15.00;98.20;;;;;;5028081;28;20571;-75
2022/05/22 00:40:50;;;;;;;1.50;1.10;;;14.90;98.20;;;;;;5018591;28;20637;-75
2022/05/22 00:43:33;;;;;;;1.50;1.00;;;14.90;98.20;;;;;;5009568;28;20471;-75
2022/05/22 00:46:08;;;;;;;1.50;1.00;;;14.90;98.20;;;;;;5029919;28;20990;-75
2022/05/22 00:48:35;;;;;;;1.50;1.00;;;14.90;98.20;;;;;;5021647;28;20512;-75
2022/05/22 00:51:05;;;;;;;1.50;1.00;;;14.90;98.20;;;;;;5020300;28;20617;-76
2022/05/22 00:53:36;;;;;;;1.50;1.10;;;14.80;98.20;;;;;;5020149;28;20519;-75
2022/05/22 00:56:10;;;;;;;1.50;1.00;;;14.80;98.20;;;;;;5022910;28;21050;-75
2022/05/22 00:58:38;;;;;;;1.50;1.00;;;14.80;98.20;;;;;;5029085;28;20781;-75
2022/05/22 01:01:08;;;;;;;1.50;1.00;;;14.70;98.20;;;;;;5027704;28;20463;-75
2022/05/22 01:03:39;;;;;;;1.50;1.00;;;14.70;98.20;;;;;;5030467;28;20894;-75
2022/05/22 01:06:09;;;;;;;1.50;0.93;;;14.60;98.20;;;;;;5024328;28;20485;-75
2022/05/22 01:08:39;;;;;;;1.50;1.00;;;14.60;98.20;;;;;;5015519;28;20495;-75
2022/05/22 01:11:13;;;;;;;1.73;1.63;;;14.50;98.20;;;;;;5025160;28;20777;-75
2022/05/22 01:13:44;;;;;;;1.50;1.00;;;14.50;98.20;;;;;;5029119;28;20463;-75
2022/05/22 01:16:14;;;;;;;1.50;1.00;;;14.40;98.20;;;;;;5018902;28;20482;-75
2022/05/22 01:18:43;;;;;;;1.50;1.00;;;14.40;98.20;;;;;;5017445;28;21138;-75
2022/05/22 01:21:17;;;;;;;1.50;1.00;;;14.30;98.20;;;;;;5021988;28;20457;-75
2022/05/22 01:23:45;;;;;;;1.50;1.00;;;14.20;98.20;;;;;;5015474;28;20529;-75
2022/05/22 01:26:13;;;;;;;1.50;1.00;;;14.20;98.20;;;;;;5024723;28;20550;-75
2022/05/22 01:28:40;;;;;;;1.50;1.00;;;14.10;98.20;;;;;;5014661;28;20531;-76
2022/05/22 01:31:08;;;;;;;1.50;1.00;;;14.10;98.20;;;;;;5014484;28;20549;-75
2022/05/22 01:33:36;;;;;;;1.50;1.00;;;14.10;98.20;;;;;;5014186;28;20710;-76
2022/05/22 01:36:06;;;;;;;1.50;1.00;;;14.00;98.20;;;;;;5025893;28;20581;-75
2022/05/22 01:38:34;;;;;;;1.50;1.10;;;14.00;98.20;;;;;;5016572;28;21030;-75
2022/05/22 01:41:04;;;;;;;1.50;1.13;;;14.00;98.20;;;;;;5020216;28;20462;-75
2022/05/22 01:43:31;;;;;;;1.50;1.00;;;14.00;98.20;;;;;;5018181;28;20462;-74
2022/05/22 01:45:58;;;;;;;1.50;1.00;;;13.90;98.20;;;;;;5017064;28;20516;-75
2022/05/22 01:48:26;;;;;;;1.50;1.10;;;13.90;98.20;;;;;;5027979;28;20690;-75
2022/05/22 01:50:53;;;;;;;2.07;1.87;;;13.80;98.20;;;;;;5026500;28;20467;-76
2022/05/22 01:53:23;;;;;;;1.50;1.00;;;13.80;98.20;;;;;;5024549;28;20513;-75
2022/05/22 01:55:51;;;;;;;1.50;1.00;;;13.80;98.20;;;;;;5027773;28;20490;-75
2022/05/22 01:58:21;;;;;;;1.50;1.00;;;13.80;98.20;;;;;;5021005;28;20522;-75
2022/05/22 02:00:49;;;;;;;1.50;1.10;;;13.70;98.20;;;;;;5025502;28;20470;-75
2022/05/22 02:03:17;;;;;;;1.50;1.03;;;13.70;98.20;;;;;;5027109;28;20570;-75
2022/05/22 02:05:45;;;;;;;1.50;1.00;;;13.70;98.20;;;;;;5027685;28;20490;-74
2022/05/22 02:08:24;;;;;;;1.50;1.00;;;13.70;98.20;;;;;;5023877;28;20463;-74
2022/05/22 02:10:56;;;;;;;1.50;1.00;;;13.70;98.20;;;;;;5023784;28;20902;-75
2022/05/22 02:13:29;;;;;;;1.50;1.00;;;13.60;98.20;;;;;;5025508;28;20520;-75
2022/05/22 02:15:58;;;;;;;1.50;1.10;;;13.60;98.20;;;;;;5026263;28;20478;-76
2022/05/22 02:18:25;;;;;;;1.50;1.00;;;13.60;98.20;;;;;;5027461;28;20495;-74
2022/05/22 02:20:52;;;;;;;1.50;1.00;;;13.60;98.20;;;;;;5026200;28;20494;-74
2022/05/22 02:23:20;;;;;;;1.50;1.00;;;13.60;98.20;;;;;;5027378;28;20570;-75
2022/05/22 02:25:50;;;;;;;1.50;1.10;;;13.60;98.20;;;;;;5018942;28;20515;-74
2022/05/22 02:28:18;;;;;;;1.50;1.00;;;13.50;98.20;;;;;;5026800;28;20467;-74
2022/05/22 02:30:50;;;;;;;1.50;1.00;;;13.50;98.20;;;;;;5027265;28;20478;-74
2022/05/22 02:33:19;;;;;;;1.50;1.00;;;13.50;98.20;;;;;;5022522;28;20518;-75
2022/05/22 02:35:50;;;;;;;1.50;1.10;;;13.50;98.20;;;;;;5022922;28;20484;-74
2022/05/22 02:38:18;;;;;;;1.50;1.00;;;13.50;98.20;;;;;;5014533;28;20488;-75
2022/05/22 02:40:48;;;;;;;1.50;1.00;;;13.40;98.20;;;;;;5020065;28;20580;-74
2022/05/22 02:43:15;;;;;;;1.50;1.00;;;13.40;98.20;;;;;;5021481;28;20466;-75
2022/05/22 02:45:42;;;;;;;1.50;1.00;;;13.50;98.20;;;;;;5021276;28;20602;-74
2022/05/22 02:48:14;;;;;;;1.50;1.00;;;13.40;98.20;;;;;;5021927;28;20463;-75
2022/05/22 02:50:42;;;;;;;1.50;1.00;;;13.50;98.20;;;;;;5021589;28;20458;-74
2022/05/22 02:53:10;;;;;;;1.50;1.00;;;13.50;98.20;;;;;;5026909;28;20486;-74
2022/05/22 02:55:39;;;;;;;1.50;0.93;;;13.50;98.20;;;;;;5026835;28;21165;-75
2022/05/22 02:58:09;;;;;;;1.50;0.90;;;13.50;98.20;;;;;;5023936;28;20456;-74
2022/05/22 03:00:36;;;;;;;1.50;1.00;;;13.50;98.20;;;;;;5020238;28;20828;-75
2022/05/22 03:03:03;;;;;;;1.50;1.10;;;13.50;98.20;;;;;;5020442;28;20610;-76
2022/05/22 03:06:38;;;;;;;1.50;1.03;;;13.60;98.20;;;;;;5027647;28;20483;-74
2022/05/22 03:08:19;;;;;;;1.50;1.00;;;13.60;98.20;;;;;;5013740;28;20454;-74
2022/05/22 03:10:46;;;;;;;1.50;1.00;;;13.60;98.20;;;;;;5026725;28;20566;-75
2022/05/22 03:13:14;;;;;;;1.50;1.00;;;13.50;98.20;;;;;;4993820;28;21059;-74
2022/05/22 03:15:41;;;;;;;1.50;1.07;;;13.40;98.20;;;;;;5029312;28;20721;-74
2022/05/22 03:18:08;;;;;;;1.50;1.00;;;13.40;98.20;;;;;;5030255;28;20467;-74
2022/05/22 03:20:37;;;;;;;1.50;1.00;;;13.50;98.20;;;;;;5029966;28;20485;-75
2022/05/22 03:23:06;;;;;;;1.60;1.23;;;13.50;98.20;;;;;;5001158;28;20491;-74
2022/05/22 03:25:33;;;;;;;1.50;1.00;;;13.50;98.20;;;;;;5025627;28;20852;-75
2022/05/22 03:28:00;;;;;;;1.50;1.00;;;13.50;98.20;;;;;;5001759;28;20484;-75
2022/05/22 03:30:28;;;;;;;1.50;1.00;;;13.50;98.20;;;;;;5029668;28;20454;-76
2022/05/22 03:32:55;;;;;;;1.50;1.00;;;13.50;98.20;;;;;;5029542;28;20464;-75
2022/05/22 03:35:22;;;;;;;1.50;1.00;;;13.50;98.20;;;;;;5029157;28;20483;-74
2022/05/22 03:37:50;;;;;;;1.50;1.00;;;13.50;98.20;;;;;;5029675;28;20482;-75
2022/05/22 03:40:18;;;;;;;1.70;1.47;;;13.40;98.20;;;;;;5024956;28;20855;-75
2022/05/22 03:42:45;;;;;;;1.50;1.10;;;13.30;98.20;;;;;;5018945;28;20557;-75
2022/05/22 03:45:13;;;;;;;1.50;1.00;;;13.10;98.20;;;;;;5025289;28;20521;-74
2022/05/22 03:47:40;;;;;;;1.50;1.00;;;13.10;98.20;;;;;;5023805;28;20509;-75
2022/05/22 03:50:10;;;;;;;1.50;0.90;;;13.10;98.20;;;;;;5027819;28;20545;-75
2022/05/22 03:52:40;;;;;;;1.50;1.00;;;13.10;98.20;;;;;;4995972;28;20550;-75
2022/05/22 03:55:11;;;;;;;1.50;1.00;;;13.10;98.20;;;;;;5030280;28;20487;-75
2022/05/22 03:57:39;;;;;;;1.50;1.00;;;13.10;98.20;;;;;;5024003;28;20661;-75
2022/05/22 04:00:10;;;;;;;1.50;1.00;;;13.20;98.20;;;;;;5029129;28;20491;-75
2022/05/22 04:02:37;;;;;;;1.50;1.00;;;13.20;98.20;;;;;;5000247;28;20490;-75
2022/05/22 04:05:07;;;;;;;1.50;1.00;;;13.10;98.20;;;;;;5028360;28;21007;-75
2022/05/22 04:07:39;;;;;;;1.50;1.00;;;13.10;98.20;;;;;;5015915;28;20556;-75
2022/05/22 04:10:08;;;;;;;1.50;1.00;;;13.10;98.20;;;;;;5025004;28;20463;-75
2022/05/22 04:12:37;;;;;;;1.50;1.00;;;13.10;98.20;;;;;;5003674;28;20508;-75
2022/05/22 04:15:08;;;;;;;1.50;1.00;;;13.10;98.20;;;;;;5026226;28;20480;-75
2022/05/22 04:17:36;;;;;;;1.70;1.60;;;13.10;98.20;;;;;;5030252;28;20521;-75
2022/05/22 04:20:03;;;;;;;1.50;1.00;;;13.20;98.20;;;;;;5023272;28;20640;-75
2022/05/22 04:22:30;;;;;;;1.50;1.07;;;13.30;98.20;;;;;;5028222;28;20499;-75
2022/05/22 04:25:12;;;;;;;1.50;1.00;;;13.30;98.20;;;;;;5044955;22;20577;-77
2022/05/22 04:27:41;;;;;;;1.50;1.00;;;13.40;98.20;;;;;;5043366;28;20468;-77
2022/05/22 04:30:10;;;;;;;1.50;1.00;;;13.50;98.20;;;;;;5047038;28;20485;-77
2022/05/22 04:32:37;;;;;;;1.50;1.00;;;13.50;98.20;;;;;;5048245;28;20580;-77
2022/05/22 04:35:04;;;;;;;1.50;1.20;;;13.60;98.20;;;;;;5047861;28;20537;-76
2022/05/22 04:37:31;;;;;;;1.50;1.10;;;13.60;98.20;;;;;;5041673;28;20486;-76
2022/05/22 04:39:59;;;;;;;1.50;1.00;;;13.60;98.20;;;;;;5047204;28;20978;-76
2022/05/22 04:42:27;;;;;;;1.50;1.00;;;13.60;98.20;;;;;;5051744;28;20497;-78
2022/05/22 04:44:58;;;;;;;1.50;1.00;;;13.70;98.20;;;;;;5033244;28;20985;-77
2022/05/22 04:47:25;;;;;;;1.50;1.00;;;13.70;98.20;;;;;;5040840;28;20573;-77
2022/05/22 04:49:52;;;;;;;1.50;1.00;;;13.80;98.20;;;;;;5041717;28;20473;-77
2022/05/22 04:52:19;;;;;;;1.50;1.00;;;13.80;98.20;;;;;;5042998;28;20482;-77
2022/05/22 04:54:46;;;;;;;1.50;1.00;;;13.80;98.20;;;;;;5042260;28;20537;-77
2022/05/22 04:57:13;;;;;;;1.50;1.00;;;13.80;98.20;;;;;;5047419;28;20462;-77
2022/05/22 04:59:40;;;;;;;1.50;1.00;;;13.80;98.20;;;;;;5042812;28;20482;-77
2022/05/22 05:02:10;;;;;;;1.50;1.07;;;13.80;98.20;;;;;;5048926;28;20470;-77
2022/05/22 05:04:39;;;;;;;1.50;1.10;;;13.80;98.20;;;;;;5050070;28;20833;-77
2022/05/22 05:07:07;;;;;;;1.50;1.00;;;13.90;98.20;;;;;;5043584;28;20490;-77
2022/05/22 05:09:35;;;;;;;1.50;1.00;;;14.00;98.20;;;;;;5039798;28;20527;-77
2022/05/22 05:12:03;;;;;;;1.50;1.00;;;14.00;98.20;;;;;;5050218;28;20465;-77
2022/05/22 05:14:30;;;;;;;1.50;1.10;;;14.10;98.20;;;;;;5050674;28;20558;-77
2022/05/22 05:16:57;;;;;;;1.50;0.90;;;14.20;98.20;;;;;;5050382;28;20482;-77
2022/05/22 05:19:26;;;;;;;1.60;1.40;;;14.30;98.20;;;;;;5046413;28;20521;-77
2022/05/22 05:21:57;;;;;;;1.50;1.00;;;14.40;98.20;;;;;;5044235;28;20482;-77
2022/05/22 05:24:24;;;;;;;1.50;1.00;;;14.70;98.20;;;;;;5070443;28;20443;-78
2022/05/22 05:26:54;;;;;;;1.50;1.00;;;14.80;98.20;;;;;;5047740;28;20581;-77
2022/05/22 05:29:24;;;;;;;1.50;1.00;;;14.90;98.20;;;;;;5049284;28;20940;-76
2022/05/22 05:31:51;;;;;;;1.50;1.03;;;15.00;98.20;;;;;;5048512;28;20466;-76
2022/05/22 05:34:19;;;;;;;1.50;1.00;;;15.10;98.20;;;;;;5051100;28;20502;-78
2022/05/22 05:36:47;;;;;;;1.60;1.10;;;15.20;98.20;;;;;;5044849;28;20572;-77
2022/05/22 05:39:14;;;;;;;1.50;1.00;;;15.40;98.20;;;;;;5059396;28;20584;-77
2022/05/22 05:41:41;;;;;;;1.50;0.90;;;15.50;98.20;;;;;;5050527;28;20502;-77
2022/05/22 05:44:09;;;;;;;1.50;1.00;;;15.60;98.20;;;;;;5048401;28;20525;-77
2022/05/22 05:46:37;;;;;;;1.53;1.10;;;15.50;98.20;;;;;;5046719;28;20573;-75
2022/05/22 05:49:04;;;;;;;1.50;1.00;;;15.50;98.20;;;;;;5048905;28;20455;-77
2022/05/22 05:51:32;;;;;;;1.50;1.00;;;15.40;98.20;;;;;;5053111;28;20462;-77
2022/05/22 05:54:00;;;;;;;1.50;1.00;;;15.40;98.20;;;;;;5055084;28;20537;-77
2022/05/22 05:56:27;;;;;;;1.50;0.93;;;15.50;98.20;;;;;;5044307;28;20581;-77
2022/05/22 05:58:55;;;;;;;1.50;0.97;;;15.70;98.20;;;;;;5053827;28;20466;-77
2022/05/22 06:01:24;;;;;;;1.50;1.00;;;15.80;98.20;;;;;;5055816;28;20520;-78
2022/05/22 06:03:52;;;;;;;1.50;1.00;;;16.00;98.20;;;;;;5055141;28;20472;-77
2022/05/22 06:06:19;;;;;;;1.50;1.00;;;16.10;98.20;;;;;;5043733;28;20556;-77
2022/05/22 06:08:46;;;;;;;1.53;1.00;;;16.40;98.20;;;;;;5060374;28;20466;-77
2022/05/22 06:11:14;;;;;;;1.50;1.00;;;16.70;97.20;;;;;;5048002;28;20495;-77
2022/05/22 06:13:41;;;;;;;1.57;1.00;;;16.80;95.50;;;;;;5044715;28;20490;-78
2022/05/22 06:16:09;;;;;;;1.50;0.90;;;16.90;95.70;;;;;;5036241;28;21014;-77
2022/05/22 06:18:36;;;;;;;1.53;1.00;;;17.00;95.30;;;;;;5049310;28;20516;-78
2022/05/22 06:21:10;;;;;;;1.50;1.00;;;17.10;94.80;;;;;;5040498;28;20490;-78
2022/05/22 06:23:38;;;;;;;1.50;0.90;;;17.30;95.30;;;;;;5046669;28;21088;-78
2022/05/22 06:26:06;;;;;;;1.60;1.13;;;17.50;95.00;;;;;;5049328;28;21157;-78
2022/05/22 06:28:34;;;;;;;1.50;0.90;;;17.80;95.10;;;;;;5042168;28;20455;-77
2022/05/22 06:31:03;;;;;;;1.50;0.90;;;18.20;94.20;;;;;;5039108;28;20459;-78
2022/05/22 06:33:31;;;;;;;1.50;0.90;;;18.50;92.70;;;;;;5048858;28;20842;-77
2022/05/22 06:35:59;;;;;;;1.50;0.90;;;18.90;91.10;;;;;;5034887;28;20506;-77
2022/05/22 06:41:12;;;;;;;1.90;1.40;;;19.30;90.70;;;;;;5034669;28;21165;-77
2022/05/22 06:43:40;;;;;;;1.50;0.90;;;19.60;89.60;;;;;;5043945;28;20519;-77
2022/05/22 06:46:08;;;;;;;1.50;0.90;;;19.70;88.80;;;;;;5044951;28;20540;-77
2022/05/22 06:48:35;;;;;;;1.50;0.90;;;19.70;88.50;;;;;;5040600;28;20467;-78
2022/05/22 06:51:02;;;;;;;1.50;0.97;;;19.90;89.10;;;;;;5043841;28;21192;-77
2022/05/22 06:53:29;;;;;;;1.73;1.37;;;20.10;88.50;;;;;;5047238;28;20557;-77
2022/05/22 06:55:56;;;;;;;1.50;0.90;;;20.10;88.50;;;;;;5044922;28;20577;-77
2022/05/22 06:58:23;;;;;;;1.50;0.90;;;20.30;88.50;;;;;;5047631;28;20478;-77
2022/05/22 07:00:53;;;;;;;1.50;0.90;;;20.50;86.50;;;;;;5047511;28;20494;-77
2022/05/22 07:03:20;;;;;;;1.60;1.10;;;20.60;87.00;;;;;;5042449;28;20474;-77
2022/05/22 07:05:47;;;;;;;1.50;0.90;;;20.90;86.70;;;;;;5045610;28;20486;-78
2022/05/22 07:08:14;;;;;;;1.50;0.93;;;21.00;86.20;;;;;;5040344;28;20454;-78
2022/05/22 07:13:26;;;;;;;1.50;0.90;;;21.40;85.80;;;;;;5047453;28;20957;-79
2022/05/22 07:16:00;;;;;;;1.50;0.90;;;21.50;85.00;;;;;;5037182;28;20577;-77
2022/05/22 07:18:27;;;;;;;1.50;0.90;;;21.60;85.00;;;;;;5040725;28;20948;-77
2022/05/22 07:20:54;;;;;;;1.50;1.00;;;21.80;84.20;;;;;;5031711;28;20490;-78
2022/05/22 07:23:21;;;;;;;1.50;0.90;;;21.90;83.00;;;;;;5067594;28;20462;-78
2022/05/22 07:25:48;;;;;;;1.50;0.90;;;21.80;83.20;;;;;;5032698;28;20487;-77
2022/05/22 07:28:15;;;;;;;1.50;0.90;;;21.80;84.60;;;;;;5057228;28;20550;-77
2022/05/22 07:30:42;;;;;;;1.50;0.90;;;21.80;82.80;;;;;;5043055;28;20458;-78
2022/05/22 07:33:10;;;;;;;1.50;0.90;;;21.90;84.50;;;;;;5046171;28;20450;-78
2022/05/22 07:35:38;;;;;;;1.50;0.90;;;22.00;83.40;;;;;;5040116;28;20600;-77
2022/05/22 07:38:05;;;;;;;1.50;0.90;;;22.10;82.40;;;;;;5040714;28;20930;-78
2022/05/22 07:40:32;;;;;;;1.47;0.90;;;21.90;83.20;;;;;;5040231;28;20952;-78
2022/05/22 07:42:59;;;;;;;1.50;0.90;;;22.00;83.20;;;;;;5037549;28;20569;-78
2022/05/22 07:45:26;;;;;;;3.10;2.00;;;22.10;82.40;;;;;;5040806;28;20990;-77
2022/05/22 07:47:53;;;;;;;1.50;0.90;;;22.50;82.30;;;;;;5040403;28;20491;-78
2022/05/22 07:50:22;;;;;;;1.50;0.90;;;22.80;82.70;;;;;;5037411;28;21008;-77
2022/05/22 07:52:50;;;;;;;1.50;1.10;;;23.00;81.60;;;;;;5045080;28;20505;-78
2022/05/22 07:55:18;;;;;;;1.47;0.90;;;23.20;80.20;;;;;;5041251;28;20486;-78
2022/05/22 07:57:49;;;;;;;1.50;0.90;;;23.00;79.50;;;;;;5043483;28;20580;-78
2022/05/22 08:00:19;;;;;;;1.50;0.90;;;22.70;80.70;;;;;;5040110;28;20998;-78
2022/05/22 08:02:47;;;;;;;1.50;0.90;;;22.60;80.20;;;;;;5047211;28;20540;-78
2022/05/22 08:05:17;;;;;;;1.50;0.90;;;22.80;80.40;;;;;;5046741;28;21262;-78
2022/05/22 08:07:45;;;;;;;1.50;0.90;;;22.70;80.50;;;;;;5039527;28;20471;-78
2022/05/22 08:10:15;;;;;;;1.47;0.90;;;22.90;78.80;;;;;;5047545;28;20489;-78
2022/05/22 08:12:45;;;;;;;1.50;0.90;;;23.10;79.10;;;;;;5047066;28;20470;-78
2022/05/22 08:15:14;;;;;;;1.50;0.90;;;23.30;80.50;;;;;;5047640;28;20688;-78
2022/05/22 08:17:41;;;;;;;1.90;1.40;;;23.50;80.10;;;;;;5052310;28;20470;-78
2022/05/22 08:20:12;;;;;;;1.47;0.90;;;23.80;78.40;;;;;;5056802;28;20485;-78
2022/05/22 08:22:40;;;;;;;1.50;0.90;;;24.00;78.60;;;;;;5033481;28;20490;-78
2022/05/22 08:25:10;;;;;;;1.50;0.90;;;24.10;77.40;;;;;;5048447;28;20501;-78
2022/05/22 08:27:37;;;;;;;1.50;1.00;;;24.30;78.60;;;;;;5034334;28;20993;-78
2022/05/22 08:30:06;;;;;;;1.47;0.80;;;24.30;77.60;;;;;;5026139;28;20942;-77
2022/05/22 08:32:37;;;;;;;1.50;0.90;;;24.50;78.40;;;;;;5021609;28;20475;-77
2022/05/22 08:35:05;;;;;;;1.50;0.90;;;24.80;78.70;;;;;;5027071;28;20781;-76
2022/05/22 08:37:33;;;;;;;1.50;0.87;;;25.00;77.20;;;;;;5026493;28;20542;-78
2022/05/22 08:40:01;;;;;;;1.47;0.80;;;25.10;75.40;;;;;;5024700;28;20498;-77
2022/05/22 08:42:40;;;;;;;1.50;0.90;;;25.10;76.00;;;;;;5024836;28;20473;-77
2022/05/22 08:45:15;;;;;;;1.70;1.10;;;25.20;75.80;;;;;;5023630;28;20489;-77
2022/05/22 08:47:51;;;;;;;1.43;0.80;;;25.20;74.50;;;;;;5031264;28;20480;-78
2022/05/22 08:50:19;;;;;;;1.43;0.80;;;25.20;74.30;;;;;;5046228;28;20484;-78
2022/05/22 08:52:51;;;;;;;1.50;0.87;;;25.40;74.00;;;;;;5020482;28;20485;-78
2022/05/22 08:55:22;;;;;;;1.43;0.83;;;25.60;73.80;;;;;;5035313;28;20509;-78
2022/05/22 09:00:48;;;;;;;1.47;0.80;;;25.90;72.90;;;;;;4995204;28;21001;-76
2022/05/22 09:03:24;;;;;;;1.60;1.00;;;26.10;72.70;;;;;;5040419;28;21193;-77
2022/05/22 09:05:56;;;;;;;1.50;0.80;;;26.20;71.40;;;;;;5025073;28;20568;-77
2022/05/22 09:08:35;;;;;;;1.50;0.80;;;26.30;70.80;;;;;;5029672;28;20541;-77
2022/05/22 09:11:09;;;;;;;1.47;0.80;;;26.50;70.40;;;;;;5028331;28;20557;-76
2022/05/22 09:13:46;;;;;;;1.50;0.87;;;26.70;71.40;;;;;;5034492;28;20899;-79
2022/05/22 09:16:20;;;;;;;1.50;0.80;;;26.90;71.40;;;;;;5030995;28;20527;-77
2022/05/22 09:18:57;;;;;;;1.50;0.80;;;27.00;69.40;;;;;;5027312;28;20490;-78
2022/05/22 09:21:32;;;;;;;1.50;0.90;;;27.10;68.60;;;;;;5027118;28;21035;-78
2022/05/22 09:24:04;;;;;;;1.47;0.80;;;27.40;68.50;;;;;;5035967;28;20566;-77
2022/05/22 09:26:44;;;;;;;1.50;0.97;;;27.50;68.90;;;;;;5018606;28;20547;-78
2022/05/22 09:29:30;;;;;;;1.50;0.90;;;27.60;68.30;;;;;;5034502;28;20957;-78
2022/05/22 09:32:08;;;;;;;1.50;0.80;;;27.60;69.00;;;;;;5036077;28;20492;-78
2022/05/22 09:34:43;;;;;;;1.47;0.80;;;27.60;68.00;;;;;;5052721;28;20526;-78
2022/05/22 09:37:24;;;;;;;1.43;0.80;;;27.60;68.30;;;;;;5043244;28;20557;-76
2022/05/22 09:40:18;;;;;;;1.47;0.87;;;27.20;67.80;;;;;;5044798;28;20553;-78
2022/05/22 09:43:12;;;;;;;1.47;0.80;;;26.70;69.30;;;;;;5047195;28;20516;-77
2022/05/22 09:45:52;;;;;;;1.50;0.80;;;26.50;70.10;;;;;;5049984;28;20901;-78
2022/05/22 09:48:54;;;;;;;1.47;0.80;;;26.40;70.50;;;;;;5046436;28;20496;-78
2022/05/22 09:51:31;;;;;;;1.47;0.90;;;26.50;70.40;;;;;;5046435;28;20509;-77
2022/05/22 09:54:35;;;;;;;1.50;0.80;;;26.60;70.20;;;;;;5042534;28;20552;-78
2022/05/22 09:57:18;;;;;;;1.47;0.80;;;26.70;69.30;;;;;;5046658;28;20485;-77
2022/05/22 10:00:13;;;;;;;1.47;0.80;;;26.70;68.70;;;;;;5047647;28;20476;-77
2022/05/22 10:02:52;;;;;;;1.47;0.80;;;26.50;69.60;;;;;;5045937;28;20584;-78
2022/05/22 10:05:32;;;;;;;1.50;1.00;;;26.50;70.30;;;;;;5049012;28;21001;-77
2022/05/22 10:08:08;;;;;;;1.50;0.90;;;26.50;69.50;;;;;;5044068;28;20457;-76
2022/05/22 10:10:43;;;;;;;1.47;0.90;;;26.70;69.20;;;;;;5043759;28;20492;-78
2022/05/22 10:13:20;;;;;;;1.43;0.80;;;27.00;68.70;;;;;;5045146;28;20562;-77
2022/05/22 10:15:59;;;;;;;1.47;0.90;;;27.20;69.10;;;;;;5041645;28;20524;-76
2022/05/22 10:18:51;;;;;;;1.43;0.90;;;27.30;69.00;;;;;;5047367;28;20468;-76
2022/05/22 10:21:25;;;;;;;1.47;0.90;;;27.30;68.30;;;;;;5031522;28;20536;-76
2022/05/22 10:24:08;;;;;;;1.50;0.80;;;27.40;67.80;;;;;;5044353;28;20461;-77
2022/05/22 10:26:48;;;;;;;1.50;0.80;;;27.60;68.60;;;;;;5030480;28;20478;-77
2022/05/22 10:29:22;;;;;;;1.50;0.80;;;27.90;69.00;;;;;;5024040;28;20561;-77
2022/05/22 10:31:57;;;;;;;1.50;0.90;;;28.10;67.30;;;;;;5023226;28;20495;-77
2022/05/22 10:34:38;;;;;;;1.43;0.90;;;27.70;64.90;;;;;;5025401;28;20458;-75
2022/05/22 10:37:24;;;;;;;1.50;0.80;;;27.40;66.10;;;;;;5022726;28;20479;-77
2022/05/22 10:39:52;;;;;;;1.47;0.80;;;27.10;67.20;;;;;;5024000;28;20471;-76
2022/05/22 10:45:19;;;;;;;1.50;0.80;;;27.70;68.60;;;;;;5026733;28;21247;-77
2022/05/22 10:47:47;;;;;;;1.50;0.80;;;28.20;64.60;;;;;;5024681;28;21025;-75
2022/05/22 10:50:19;;;;;;;1.50;0.80;;;28.50;65.80;;;;;;5026039;28;21043;-77
2022/05/22 10:52:47;;;;;;;1.50;0.80;;;28.80;63.10;;;;;;5032480;28;20490;-77
2022/05/22 10:55:32;;;;;;;1.50;0.80;;;29.10;63.10;;;;;;5033695;28;20540;-76
2022/05/22 10:58:02;;;;;;;1.47;0.80;;;29.20;61.40;;;;;;5034533;28;20463;-77
2022/05/22 11:00:30;;;;;;;1.80;1.00;;;29.10;62.30;;;;;;5035018;28;20496;-77
2022/05/22 11:03:19;;;;;;;1.50;0.80;;;29.10;65.20;;;;;;5026925;28;20745;-75
2022/05/22 11:05:52;;;;;;;1.50;1.00;;;28.60;65.20;;;;;;5016806;28;20532;-77
2022/05/22 11:08:28;;;;;;;1.43;0.90;;;28.00;66.10;;;;;;5022012;28;20885;-77
2022/05/22 11:10:57;;;;;;;1.50;0.90;;;27.80;65.80;;;;;;5025257;28;20582;-76
2022/05/22 11:13:26;;;;;;;1.43;0.80;;;27.80;67.00;;;;;;5026201;28;20466;-77
2022/05/22 11:15:55;;;;;;;1.43;0.80;;;28.00;66.10;;;;;;5030218;28;20482;-77
2022/05/22 11:18:25;;;;;;;1.50;0.90;;;27.70;66.20;;;;;;5026378;28;20834;-77
2022/05/22 11:21:02;;;;;;;1.50;0.80;;;27.60;66.70;;;;;;5020462;28;21003;-77
2022/05/22 11:24:01;;;;;;;1.50;0.80;;;27.30;67.30;;;;;;5046027;28;20471;-76
2022/05/22 11:26:40;;;;;;;1.47;0.90;;;27.30;68.20;;;;;;5023879;28;20493;-77
2022/05/22 11:29:27;;;;;;;1.50;0.90;;;27.60;67.70;;;;;;5028619;22;20575;-79
2022/05/22 11:32:01;;;;;;;1.47;0.80;;;27.80;67.90;;;;;;4990701;28;20810;-77
2022/05/22 11:34:48;;;;;;;1.43;0.80;;;28.20;66.90;;;;;;5002586;28;20467;-77
2022/05/22 11:37:25;;;;;;;1.50;0.90;;;28.60;66.00;;;;;;5004596;28;20551;-79
2022/05/22 11:40:22;;;;;;;1.47;0.80;;;28.90;62.80;;;;;;4993069;28;20558;-78
2022/05/22 11:42:53;;;;;;;1.47;0.80;;;28.90;65.00;;;;;;4989123;28;20461;-78
2022/05/22 11:45:32;;;;;;;1.50;0.90;;;29.00;64.40;;;;;;4992998;28;20476;-78
2022/05/22 11:48:33;;;;;;;1.50;0.80;;;29.20;61.60;;;;;;4995650;28;20828;-78
2022/05/22 11:51:11;;;;;;;1.43;0.83;;;28.60;61.60;;;;;;4995490;28;21021;-78
2022/05/22 11:54:01;;;;;;;1.43;0.80;;;28.30;63.40;;;;;;4992357;28;20479;-79
2022/05/22 11:56:42;;;;;;;1.60;1.27;;;28.50;64.80;;;;;;4992920;28;20467;-78
2022/05/22 11:59:21;;;;;;;1.47;0.80;;;28.80;62.90;;;;;;4992590;28;20527;-79
2022/05/22 12:01:57;;;;;;;1.50;1.00;;;29.20;64.10;;;;;;4976446;28;20927;-79
2022/05/22 12:04:47;;;;;;;1.40;0.80;;;29.10;61.60;;;;;;4982289;28;20492;-78
2022/05/22 12:07:40;;;;;;;1.40;0.80;;;29.20;64.80;;;;;;4999971;28;20796;-78
2022/05/22 12:10:14;;;;;;;1.43;0.80;;;29.50;63.30;;;;;;4981324;28;20488;-79
2022/05/22 12:12:47;;;;;;;1.47;0.80;;;29.50;60.20;;;;;;4998220;28;20522;-78
2022/05/22 12:15:37;;;;;;;1.43;0.80;;;29.00;60.50;;;;;;4991845;28;20507;-78
2022/05/22 12:18:28;;;;;;;1.47;0.90;;;28.60;62.10;;;;;;4989018;28;21120;-78
2022/05/22 12:21:03;;;;;;;1.43;0.80;;;28.80;61.40;;;;;;4990610;28;20801;-79
2022/05/22 12:23:37;;;;;;;1.43;0.80;;;28.70;60.50;;;;;;4993938;28;20689;-79
2022/05/22 12:26:07;;;;;;;1.47;0.80;;;28.60;60.70;;;;;;4991673;28;20527;-79
2022/05/22 12:28:43;;;;;;;1.47;0.87;;;28.60;63.50;;;;;;4994122;28;20520;-79
2022/05/22 12:31:16;;;;;;;1.40;0.80;;;28.60;61.70;;;;;;4989835;28;20603;-79
2022/05/22 12:33:43;;;;;;;1.50;0.80;;;28.40;61.80;;;;;;4997255;28;20555;-78
2022/05/22 12:36:11;;;;;;;1.43;0.80;;;28.60;63.50;;;;;;4990865;28;20479;-79
2022/05/22 12:38:45;;;;;;;1.43;0.80;;;28.70;63.70;;;;;;4998240;28;20626;-79
2022/05/22 12:41:25;;;;;;;1.47;0.80;;;28.80;61.20;;;;;;4984566;28;20653;-77
2022/05/22 12:43:56;;;;;;;1.43;0.80;;;28.50;59.30;;;;;;4991295;28;20667;-77
2022/05/22 12:46:25;;;;;;;1.40;0.80;;;28.10;59.70;;;;;;4995286;28;20526;-78
2022/05/22 12:49:05;;;;;;;1.50;0.97;;;27.80;62.50;;;;;;4993292;28;20764;-77
2022/05/22 12:51:35;;;;;;;1.47;0.90;;;28.10;62.30;;;;;;4983105;28;20519;-78
2022/05/22 12:54:09;;;;;;;1.50;0.90;;;28.70;63.30;;;;;;4990251;28;20467;-78
2022/05/22 12:56:41;;;;;;;1.43;0.80;;;28.80;59.20;;;;;;4991367;28;20528;-78
2022/05/22 12:59:21;;;;;;;1.50;0.80;;;29.10;59.70;;;;;;4986344;28;20946;-79
2022/05/22 13:01:50;;;;;;;1.43;0.80;;;29.10;59.50;;;;;;4982241;28;20500;-79
2022/05/22 13:04:34;;;;;;;1.47;0.90;;;29.00;58.50;;;;;;4989895;28;20567;-77
2022/05/22 13:07:04;;;;;;;1.50;0.90;;;29.20;59.20;;;;;;4998302;28;20875;-77
2022/05/22 13:09:38;;;;;;;1.50;0.90;;;29.60;59.40;;;;;;4995115;28;20908;-76
2022/05/22 13:12:23;;;;;;;1.43;0.80;;;29.60;56.00;;;;;;4984076;28;20476;-77
2022/05/22 13:14:55;;;;;;;1.50;0.90;;;29.50;56.80;;;;;;4990575;28;20627;-80
2022/05/22 13:17:34;;;;;;;1.47;0.80;;;29.50;58.30;;;;;;4988617;28;20561;-78
2022/05/22 13:20:04;;;;;;;1.47;0.80;;;29.40;57.10;;;;;;4986952;28;21346;-78
2022/05/22 13:22:34;;;;;;;1.43;0.80;;;29.20;59.20;;;;;;4984898;28;20515;-77
2022/05/22 13:25:02;;;;;;;1.40;0.80;;;29.00;59.70;;;;;;4990649;28;20499;-79